Accueil
METAR-TAF:

METAR-TAF

Aéroports :

Columbus, Mississippi, États-Unis

latitude: 33-39N, longitude: 088-27W, altitude: 67 m

Observation

Le bulletin a été fait il y a 19 minutes, à 00:57 UTC
Vent 6 kt de nord-ouest
Température 15°C
Humidité 94%
Pression 1016 hPa
Visibilité: 16.1 km
Nuages fragmentés à une hauteur de 9000 ft
pluie faible

METAR: KCBM 120057Z AUTO 32006KT 10SM -RA BKN090 15/14 A3001 RMK AO2 RAB57 SLP165 $

Heure: 19:16 (01:16 UTC)


TAF: absent

Observations et prévisions météorologiques de plus de 4000 aéroports (messages METAR et TAF).

Les stations disponibles sont représentées par des disques jaunes et rouges sur la carte.

Passer la souris dessus pour voir le nom de la station.

Cliquer dessus pour voir les observations et prévisions météorologiques.

Pour changer de carte: cliquez sur les boutons verts avec une croix noire pour zoomer, sur le bouton vert avec un tiret pour effectuer un zoom arrière, ou sur les flèches vertes pour les cartes adjacentes.


METAR-TAF: